Time;durP1;ratioP1;P1;durP2;ratioP2;P2;SDS_P1;SDS_P2;PMS_P1;PMS_P2;Temp;Humidity;BMP_temperature;BMP_pressure;BME280_temperature;BME280_humidity;BME280_pressure;Samples;Min_cycle;Max_cycle;Signal;HPM_P1;HPM_P2
2022/09/11 00:01:00;;;;;;;2.33;2.23;;;;;;;;;;6259239;28;20040;-79
2022/09/11 00:04:00;;;;;;;5.50;5.03;;;;;;;;;;6263836;28;20017;-79
2022/09/11 00:07:00;;;;;;;6.47;4.10;;;;;;;;;;6259839;28;20089;-79
2022/09/11 00:10:01;;;;;;;8.50;4.57;;;;;;;;;;6278278;28;20017;-79
2022/09/11 00:13:02;;;;;;;9.80;5.30;;;;;;;;;;6260828;28;20018;-78
2022/09/11 00:16:04;;;;;;;8.57;7.97;;;;;;;;;;6255695;28;20540;-79
2022/09/11 00:19:06;;;;;;;3.33;3.13;;;;;;;;;;6279916;28;20494;-79
2022/09/11 00:22:06;;;;;;;7.40;6.68;;;;;;;;;;6272828;28;20013;-79
2022/09/11 00:25:07;;;;;;;11.13;10.03;;;;;;;;;;6286274;28;20181;-79
2022/09/11 00:28:10;;;;;;;5.60;5.20;;;;;;;;;;6271989;28;20108;-79
2022/09/11 00:31:12;;;;;;;6.15;4.75;;;;;;;;;;6272845;28;20500;-80
2022/09/11 00:34:12;;;;;;;;;;;;;;;;;;6261062;28;20009;-79
2022/09/11 00:37:12;;;;;;;8.00;5.85;;;;;;;;;;6270677;28;19912;-79
2022/09/11 00:40:14;;;;;;;12.38;8.07;;;;;;;;;;6265113;28;20017;-79
2022/09/11 00:43:15;;;;;;;4.43;4.00;;;;;;;;;;6283908;28;20596;-79
2022/09/11 00:46:16;;;;;;;7.03;6.05;;;;;;;;;;6261577;28;20013;-80
2022/09/11 00:49:22;;;;;;;5.97;4.93;;;;;;;;;;6262769;28;20544;-80
2022/09/11 00:52:25;;;;;;;5.07;4.78;;;;;;;;;;6276703;28;20017;-79
2022/09/11 00:55:27;;;;;;;4.60;4.40;;;;;;;;;;6250129;28;20028;-79
2022/09/11 00:58:31;;;;;;;8.52;7.72;;;;;;;;;;6262153;28;20082;-79
2022/09/11 01:01:32;;;;;;;10.25;5.68;;;;;;;;;;6271294;28;20017;-80
2022/09/11 01:04:32;;;;;;;7.87;7.07;;;;;;;;;;6271131;28;20024;-79
2022/09/11 01:07:33;;;;;;;8.90;8.23;;;;;;;;;;6256892;28;20424;-79
2022/09/11 01:10:45;;;;;;;15.40;5.03;;;;;;;;;;6248656;28;20021;-80
2022/09/11 01:13:54;;;;;;;8.18;6.45;;;;;;;;;;6263693;28;20025;-79
2022/09/11 01:17:14;;;;;;;5.20;4.70;;;;;;;;;;6254057;28;20064;-80
2022/09/11 01:20:17;;;;;;;11.48;7.30;;;;;;;;;;6266893;28;20524;-79
2022/09/11 01:23:17;;;;;;;3.78;3.47;;;;;;;;;;6272553;28;20551;-79
2022/09/11 01:26:39;;;;;;;4.72;4.40;;;;;;;;;;6274065;28;20469;-79
2022/09/11 01:29:43;;;;;;;13.50;7.38;;;;;;;;;;6278767;28;20512;-79
2022/09/11 01:32:58;;;;;;;9.18;4.72;;;;;;;;;;6272329;28;20425;-79
2022/09/11 01:36:06;;;;;;;5.18;4.78;;;;;;;;;;6275642;28;20032;-80
2022/09/11 01:39:06;;;;;;;11.20;6.70;;;;;;;;;;6287907;28;20016;-80
2022/09/11 01:42:13;;;;;;;12.88;4.97;;;;;;;;;;6275483;28;20082;-80
2022/09/11 01:45:15;;;;;;;6.57;5.53;;;;;;;;;;6253854;28;20024;-79
2022/09/11 01:48:17;;;;;;;6.60;4.50;;;;;;;;;;6264870;28;20339;-79
2022/09/11 01:51:21;;;;;;;11.27;9.73;;;;;;;;;;6265661;28;20394;-80
2022/09/11 01:54:24;;;;;;;17.45;6.63;;;;;;;;;;6257887;28;20468;-80
2022/09/11 01:58:03;;;;;;;7.38;5.88;;;;;;;;;;6267566;28;20028;-80
2022/09/11 02:01:05;;;;;;;7.85;4.20;;;;;;;;;;6143486;28;20019;-79
2022/09/11 02:04:06;;;;;;;8.48;7.85;;;;;;;;;;6153038;28;20031;-79
2022/09/11 02:07:11;;;;;;;5.00;4.50;;;;;;;;;;6259868;28;20454;-79
2022/09/11 02:10:16;;;;;;;5.85;5.32;;;;;;;;;;6273014;28;20029;-80
2022/09/11 02:13:21;;;;;;;7.53;4.95;;;;;;;;;;6264123;28;20017;-80
2022/09/11 02:16:42;;;;;;;8.50;5.40;;;;;;;;;;6248954;28;20020;-80
2022/09/11 02:19:43;;;;;;;5.45;5.10;;;;;;;;;;6266231;28;20381;-80
2022/09/11 02:22:43;;;;;;;5.63;3.57;;;;;;;;;;6272086;28;20031;-79
2022/09/11 02:25:43;;;;;;;8.00;7.30;;;;;;;;;;6272244;28;20489;-79
2022/09/11 02:28:43;;;;;;;4.60;4.30;;;;;;;;;;6244957;28;20384;-79
2022/09/11 02:31:44;;;;;;;7.60;6.75;;;;;;;;;;6279060;28;20021;-80
2022/09/11 02:34:46;;;;;;;10.20;5.77;;;;;;;;;;6259247;28;20465;-79
2022/09/11 02:38:04;;;;;;;5.50;5.03;;;;;;;;;;6251839;28;20031;-79
2022/09/11 02:41:12;;;;;;;5.35;4.90;;;;;;;;;;6243439;28;20017;-80
2022/09/11 02:44:20;;;;;;;8.07;6.45;;;;;;;;;;6255532;28;20028;-79
2022/09/11 02:47:30;;;;;;;10.65;8.40;;;;;;;;;;6256741;28;20075;-79
2022/09/11 02:50:42;;;;;;;7.55;6.22;;;;;;;;;;6251740;28;20033;-79
2022/09/11 02:53:48;;;;;;;4.80;4.43;;;;;;;;;;6257297;28;20009;-79
2022/09/11 02:56:48;;;;;;;3.28;2.97;;;;;;;;;;6264252;28;20028;-79
2022/09/11 02:59:51;;;;;;;6.07;4.40;;;;;;;;;;6291534;28;20057;-79
2022/09/11 03:02:52;;;;;;;6.80;3.38;;;;;;;;;;6262220;28;20016;-79
2022/09/11 03:05:52;;;;;;;3.67;3.37;;;;;;;;;;6276656;28;20020;-79
2022/09/11 03:08:53;;;;;;;6.23;5.77;;;;;;;;;;6266481;28;20019;-78
2022/09/11 03:11:54;;;;;;;8.43;7.77;;;;;;;;;;6283775;28;20012;-78
2022/09/11 03:14:55;;;;;;;5.03;4.67;;;;;;;;;;6278948;28;20020;-79
2022/09/11 03:17:56;;;;;;;;;;;;;;;;;;6276115;28;20070;-79
2022/09/11 03:20:56;;;;;;;6.10;5.13;;;;;;;;;;6281628;28;19909;-79
2022/09/11 03:23:57;;;;;;;3.33;2.97;;;;;;;;;;6267335;28;20031;-79
2022/09/11 03:26:57;;;;;;;4.88;2.83;;;;;;;;;;6291398;28;20072;-79
2022/09/11 03:29:57;;;;;;;11.13;5.00;;;;;;;;;;6265941;28;20401;-79
2022/09/11 03:32:59;;;;;;;6.67;4.93;;;;;;;;;;6285623;28;20013;-79
2022/09/11 03:35:59;;;;;;;8.10;5.32;;;;;;;;;;6272480;28;20017;-79
2022/09/11 03:39:00;;;;;;;6.57;5.53;;;;;;;;;;6267714;28;20067;-79
2022/09/11 03:42:00;;;;;;;6.03;5.57;;;;;;;;;;6254885;28;20060;-78
2022/09/11 03:45:00;;;;;;;10.90;9.80;;;;;;;;;;6270707;28;20017;-78
2022/09/11 03:48:01;;;;;;;5.20;4.70;;;;;;;;;;6259086;28;20035;-78
2022/09/11 03:51:04;;;;;;;3.03;2.83;;;;;;;;;;6256640;28;20099;-78
2022/09/11 03:54:04;;;;;;;6.28;5.75;;;;;;;;;;6258637;28;20103;-78
2022/09/11 03:57:05;;;;;;;12.47;8.27;;;;;;;;;;6281647;28;20039;-78
2022/09/11 04:00:06;;;;;;;15.13;6.03;;;;;;;;;;6260247;28;20044;-78
2022/09/11 04:03:06;;;;;;;7.63;6.90;;;;;;;;;;6252126;28;20027;-78
2022/09/11 04:06:06;;;;;;;7.60;5.07;;;;;;;;;;6244888;28;20219;-78
2022/09/11 04:09:07;;;;;;;8.47;5.70;;;;;;;;;;6272022;28;20029;-78
2022/09/11 04:12:08;;;;;;;8.83;5.30;;;;;;;;;;6270355;28;20069;-78
2022/09/11 04:15:08;;;;;;;29.80;7.17;;;;;;;;;;6274520;28;20017;-78
2022/09/11 04:18:08;;;;;;;7.30;6.17;;;;;;;;;;6271918;28;20023;-78
2022/09/11 04:21:10;;;;;;;4.68;4.43;;;;;;;;;;6250525;28;20487;-78
2022/09/11 04:24:10;;;;;;;26.73;9.25;;;;;;;;;;6252150;28;20023;-78
2022/09/11 04:27:11;;;;;;;12.07;7.38;;;;;;;;;;6266653;28;20480;-78
2022/09/11 04:30:12;;;;;;;7.70;7.10;;;;;;;;;;6251018;28;20042;-77
2022/09/11 04:33:12;;;;;;;9.63;6.50;;;;;;;;;;6275192;28;20009;-77
2022/09/11 04:36:16;;;;;;;8.67;5.23;;;;;;;;;;6273230;28;20009;-77
2022/09/11 04:39:16;;;;;;;7.63;6.90;;;;;;;;;;6254954;28;20389;-77
2022/09/11 04:42:16;;;;;;;7.03;6.43;;;;;;;;;;6272760;28;20050;-77
2022/09/11 04:45:17;;;;;;;6.77;6.17;;;;;;;;;;6258946;28;20013;-77
2022/09/11 04:48:17;;;;;;;7.23;6.53;;;;;;;;;;6260577;28;20010;-77
2022/09/11 04:51:22;;;;;;;9.77;5.68;;;;;;;;;;6261294;28;20271;-77
2022/09/11 04:54:22;;;;;;;8.15;5.05;;;;;;;;;;6247471;28;20029;-77
2022/09/11 04:57:22;;;;;;;7.27;5.57;;;;;;;;;;6264045;28;20063;-78
2022/09/11 05:00:23;;;;;;;9.17;6.70;;;;;;;;;;6251199;28;20477;-77
2022/09/11 05:03:24;;;;;;;5.93;5.07;;;;;;;;;;6277605;28;20066;-77
2022/09/11 05:06:24;;;;;;;6.30;5.70;;;;;;;;;;6275451;28;20062;-77
2022/09/11 05:09:25;;;;;;;20.93;5.17;;;;;;;;;;6273335;28;20416;-77
2022/09/11 05:12:26;;;;;;;15.43;10.93;;;;;;;;;;6269323;28;20365;-77
2022/09/11 05:15:28;;;;;;;5.05;4.75;;;;;;;;;;6253943;28;20021;-77
2022/09/11 05:18:28;;;;;;;;;;;;;;;;;;6256059;28;20017;-77
2022/09/11 05:21:30;;;;;;;10.20;3.92;;;;;;;;;;6285262;28;19911;-77
2022/09/11 05:24:30;;;;;;;11.07;4.47;;;;;;;;;;6271681;28;20013;-77
2022/09/11 05:27:30;;;;;;;8.33;5.60;;;;;;;;;;6246412;28;20280;-77
2022/09/11 05:30:30;;;;;;;4.88;4.57;;;;;;;;;;6254377;28;20041;-77
2022/09/11 05:33:30;;;;;;;13.40;6.97;;;;;;;;;;6269717;28;20017;-77
2022/09/11 05:36:32;;;;;;;5.00;4.40;;;;;;;;;;6269181;28;20024;-77
2022/09/11 05:39:32;;;;;;;5.20;3.95;;;;;;;;;;6274906;28;20430;-76
2022/09/11 05:42:32;;;;;;;2.73;2.60;;;;;;;;;;6270081;28;20096;-76
2022/09/11 05:45:32;;;;;;;9.93;5.90;;;;;;;;;;6260309;28;20017;-77
2022/09/11 05:48:33;;;;;;;7.80;6.40;;;;;;;;;;6277473;28;20143;-77
2022/09/11 05:51:36;;;;;;;8.18;7.45;;;;;;;;;;6269833;28;20014;-77
2022/09/11 05:54:36;;;;;;;9.60;4.30;;;;;;;;;;6269769;28;20013;-77
2022/09/11 05:57:36;;;;;;;10.48;6.07;;;;;;;;;;6270181;28;20029;-77
2022/09/11 06:00:37;;;;;;;7.53;6.63;;;;;;;;;;6267401;28;20139;-77
2022/09/11 06:03:37;;;;;;;12.57;4.13;;;;;;;;;;6251380;28;20078;-76
2022/09/11 06:06:39;;;;;;;21.07;5.07;;;;;;;;;;6259992;28;20021;-77
2022/09/11 06:09:39;;;;;;;8.43;4.97;;;;;;;;;;6267341;28;20423;-77
2022/09/11 06:12:39;;;;;;;5.20;4.70;;;;;;;;;;6245448;28;20063;-76
2022/09/11 06:15:46;;;;;;;5.53;5.03;;;;;;;;;;6265268;28;20120;-77
2022/09/11 06:18:47;;;;;;;5.60;3.67;;;;;;;;;;6272020;28;20013;-76
2022/09/11 06:21:49;;;;;;;4.22;3.95;;;;;;;;;;6246676;28;20390;-77
2022/09/11 06:24:49;;;;;;;12.18;5.38;;;;;;;;;;6250193;28;20021;-76
2022/09/11 06:27:49;;;;;;;6.90;4.57;;;;;;;;;;6253393;28;20495;-76
2022/09/11 06:30:50;;;;;;;4.60;4.20;;;;;;;;;;6269601;28;20033;-77
2022/09/11 06:33:50;;;;;;;3.40;3.10;;;;;;;;;;6270742;28;20040;-77
2022/09/11 06:36:50;;;;;;;10.20;5.27;;;;;;;;;;6270575;28;20017;-77
2022/09/11 06:39:51;;;;;;;6.70;3.47;;;;;;;;;;6253226;28;20473;-77
2022/09/11 06:42:53;;;;;;;8.43;6.70;;;;;;;;;;6248305;28;20499;-77
2022/09/11 06:45:53;;;;;;;12.15;7.95;;;;;;;;;;6252745;28;20396;-77
2022/09/11 06:48:54;;;;;;;8.63;7.23;;;;;;;;;;6261005;28;20029;-77
2022/09/11 06:51:54;;;;;;;8.50;7.13;;;;;;;;;;6263120;28;20381;-76
2022/09/11 06:54:56;;;;;;;8.63;6.00;;;;;;;;;;6258382;28;20051;-76
2022/09/11 06:57:56;;;;;;;7.53;6.93;;;;;;;;;;6245754;28;20010;-76
2022/09/11 07:01:02;;;;;;;8.50;5.95;;;;;;;;;;6263586;28;20020;-77
2022/09/11 07:04:02;;;;;;;6.20;4.60;;;;;;;;;;6258650;28;20503;-76
2022/09/11 07:07:03;;;;;;;6.23;5.63;;;;;;;;;;6263768;28;20048;-77
2022/09/11 07:10:04;;;;;;;7.68;5.18;;;;;;;;;;6243419;28;20098;-77
2022/09/11 07:13:04;;;;;;;7.57;5.93;;;;;;;;;;6267642;28;20465;-76
2022/09/11 07:16:06;;;;;;;15.50;7.23;;;;;;;;;;6268143;28;21396;-77
2022/09/11 07:19:08;;;;;;;8.25;7.53;;;;;;;;;;6260616;28;20021;-77
2022/09/11 07:22:09;;;;;;;3.83;2.88;;;;;;;;;;6269103;28;20036;-77
2022/09/11 07:25:09;;;;;;;5.23;4.73;;;;;;;;;;6264829;28;20584;-77
2022/09/11 07:28:11;;;;;;;7.03;6.33;;;;;;;;;;6268249;28;20028;-76
2022/09/11 07:31:11;;;;;;;;;;;;;;;;;;6263316;28;20140;-77
2022/09/11 07:34:11;;;;;;;4.50;3.92;;;;;;;;;;6267100;28;20290;-77
2022/09/11 07:37:11;;;;;;;3.10;2.90;;;;;;;;;;6245688;28;20028;-77
2022/09/11 07:40:11;;;;;;;4.27;3.47;;;;;;;;;;6248705;28;20067;-77
2022/09/11 07:43:12;;;;;;;5.93;5.30;;;;;;;;;;6264714;28;20112;-77
2022/09/11 07:46:13;;;;;;;6.57;5.93;;;;;;;;;;6256778;28;20444;-77
2022/09/11 07:49:14;;;;;;;7.07;4.40;;;;;;;;;;6259395;28;20029;-77
2022/09/11 07:52:14;;;;;;;11.43;4.93;;;;;;;;;;6244599;28;20083;-77
2022/09/11 07:55:14;;;;;;;7.22;6.32;;;;;;;;;;6267604;28;20474;-77
2022/09/11 07:58:14;;;;;;;5.43;3.40;;;;;;;;;;6254385;28;20021;-76
2022/09/11 08:01:16;;;;;;;5.80;5.30;;;;;;;;;;6261256;28;20029;-78
2022/09/11 08:04:16;;;;;;;3.90;3.33;;;;;;;;;;6255061;28;20400;-78
2022/09/11 08:07:17;;;;;;;3.43;3.23;;;;;;;;;;6225971;28;20036;-78
2022/09/11 08:10:17;;;;;;;4.20;3.70;;;;;;;;;;6246172;28;20503;-78
2022/09/11 08:13:18;;;;;;;8.40;3.22;;;;;;;;;;6264387;28;20013;-76
2022/09/11 08:16:20;;;;;;;2.95;2.75;;;;;;;;;;6257113;28;20045;-77
2022/09/11 08:19:21;;;;;;;7.55;3.58;;;;;;;;;;6251326;28;20052;-78
2022/09/11 08:22:22;;;;;;;4.28;3.90;;;;;;;;;;6248479;28;20036;-76
2022/09/11 08:25:22;;;;;;;4.43;3.13;;;;;;;;;;6252522;28;20587;-76
2022/09/11 08:28:23;;;;;;;3.73;3.43;;;;;;;;;;6264352;28;20064;-77
2022/09/11 08:31:25;;;;;;;9.00;4.10;;;;;;;;;;6262774;28;20515;-76
2022/09/11 08:34:26;;;;;;;1.73;1.63;;;;;;;;;;6254787;28;20020;-77
2022/09/11 08:37:26;;;;;;;5.50;5.00;;;;;;;;;;6258856;28;20103;-76
2022/09/11 08:40:28;;;;;;;2.93;2.67;;;;;;;;;;6265182;28;20033;-76
2022/09/11 08:43:34;;;;;;;4.20;2.65;;;;;;;;;;6261194;28;20423;-75
2022/09/11 08:46:35;;;;;;;5.50;3.67;;;;;;;;;;6263070;28;20034;-76
2022/09/11 08:49:45;;;;;;;2.72;2.58;;;;;;;;;;6260869;28;20029;-76
2022/09/11 08:52:47;;;;;;;4.65;2.80;;;;;;;;;;6250945;28;20659;-77
2022/09/11 08:55:47;;;;;;;;;;;;;;;;;;6262929;28;20005;-76
2022/09/11 08:58:47;;;;;;;1.75;1.65;;;;;;;;;;6267579;28;19951;-76
2022/09/11 09:01:54;;;;;;;3.75;1.75;;;;;;;;;;6251318;28;20032;-77
2022/09/11 09:05:13;;;;;;;6.07;2.78;;;;;;;;;;6264533;28;20108;-77
2022/09/11 09:08:16;;;;;;;3.10;2.83;;;;;;;;;;6262291;28;20036;-76
2022/09/11 09:11:31;;;;;;;5.13;3.28;;;;;;;;;;6270213;28;20090;-76
2022/09/11 09:14:49;;;;;;;1.63;1.52;;;;;;;;;;6268609;28;20048;-77
2022/09/11 09:18:06;;;;;;;1.58;1.48;;;;;;;;;;6264690;28;20032;-77
2022/09/11 09:21:11;;;;;;;0.70;0.70;;;;;;;;;;6258222;28;20025;-77
2022/09/11 09:24:20;;;;;;;2.97;2.72;;;;;;;;;;6264015;28;20020;-77
2022/09/11 09:27:27;;;;;;;2.72;2.35;;;;;;;;;;6269539;28;20013;-77
2022/09/11 09:30:29;;;;;;;2.55;2.22;;;;;;;;;;6249901;28;20056;-77
2022/09/11 09:33:30;;;;;;;3.17;2.40;;;;;;;;;;6273144;28;20035;-77
2022/09/11 09:36:31;;;;;;;;;;;;;;;;;;6265405;28;20040;-77
2022/09/11 09:39:32;;;;;;;1.50;1.42;;;;;;;;;;6269197;28;19908;-78
2022/09/11 09:42:32;;;;;;;;;;;;;;;;;;6273961;28;20509;-77
2022/09/11 09:45:36;;;;;;;4.35;3.97;;;;;;;;;;6274955;28;20365;-77
2022/09/11 09:48:38;;;;;;;2.85;2.40;;;;;;;;;;6270586;28;20073;-77
2022/09/11 09:51:38;;;;;;;3.50;3.00;;;;;;;;;;6262281;28;20480;-77
2022/09/11 09:54:39;;;;;;;3.87;3.57;;;;;;;;;;6271931;28;20025;-77
2022/09/11 09:57:39;;;;;;;1.57;1.47;;;;;;;;;;6253920;28;20053;-77
2022/09/11 10:00:40;;;;;;;3.77;3.53;;;;;;;;;;6254024;28;20055;-77
2022/09/11 10:03:40;;;;;;;3.80;3.40;;;;;;;;;;6273992;28;20018;-77
2022/09/11 10:06:40;;;;;;;3.93;3.63;;;;;;;;;;6276657;28;20550;-78
2022/09/11 10:09:45;;;;;;;2.97;2.77;;;;;;;;;;6276455;28;20476;-77
2022/09/11 10:12:45;;;;;;;2.85;2.65;;;;;;;;;;6284426;28;20020;-77
2022/09/11 10:15:47;;;;;;;3.67;2.67;;;;;;;;;;6261739;28;20029;-77
2022/09/11 10:18:47;;;;;;;2.85;2.63;;;;;;;;;;6269611;28;20021;-77
2022/09/11 10:21:48;;;;;;;1.03;1.03;;;;;;;;;;6252325;28;20358;-77
2022/09/11 10:25:11;;;;;;;1.00;1.00;;;;;;;;;;6255370;28;20440;-77
2022/09/11 10:28:13;;;;;;;8.00;2.67;;;;;;;;;;6222881;28;20063;-77
2022/09/11 10:31:15;;;;;;;4.22;2.15;;;;;;;;;;6259955;28;20088;-77
2022/09/11 10:34:17;;;;;;;2.20;2.05;;;;;;;;;;6260438;28;20021;-77
2022/09/11 10:37:28;;;;;;;1.60;1.50;;;;;;;;;;6257540;28;20044;-77
2022/09/11 10:40:29;;;;;;;3.22;2.97;;;;;;;;;;6250184;28;20132;-77
2022/09/11 10:43:34;;;;;;;7.68;3.72;;;;;;;;;;6271778;28;20115;-77
2022/09/11 10:46:36;;;;;;;1.77;1.55;;;;;;;;;;6247061;28;20532;-77
2022/09/11 10:49:36;;;;;;;4.03;3.67;;;;;;;;;;6260283;28;20535;-75
2022/09/11 10:52:57;;;;;;;2.20;1.67;;;;;;;;;;6261483;28;20021;-77
2022/09/11 10:56:02;;;;;;;5.60;2.85;;;;;;;;;;6234659;28;20424;-76
2022/09/11 10:59:04;;;;;;;2.30;1.65;;;;;;;;;;6241310;28;20109;-77
2022/09/11 11:02:14;;;;;;;5.95;3.38;;;;;;;;;;6242940;28;20053;-77
2022/09/11 11:05:20;;;;;;;1.50;1.40;;;;;;;;;;6258943;28;20443;-77
2022/09/11 11:08:23;;;;;;;5.18;2.97;;;;;;;;;;6260360;28;20601;-76
2022/09/11 11:11:42;;;;;;;3.95;3.20;;;;;;;;;;6258394;28;20040;-76
2022/09/11 11:15:01;;;;;;;2.78;2.60;;;;;;;;;;6250604;28;20025;-76
2022/09/11 11:18:05;;;;;;;3.67;2.70;;;;;;;;;;6269902;28;20036;-77
2022/09/11 11:21:06;;;;;;;2.90;2.65;;;;;;;;;;6266040;28;20381;-77
2022/09/11 11:24:12;;;;;;;5.90;5.47;;;;;;;;;;6264202;28;20414;-76
2022/09/11 11:27:35;;;;;;;4.30;3.47;;;;;;;;;;6273039;28;20353;-78
2022/09/11 11:30:40;;;;;;;1.98;1.73;;;;;;;;;;6228437;28;20152;-77
2022/09/11 11:33:50;;;;;;;4.40;4.10;;;;;;;;;;6259422;28;20555;-77
2022/09/11 11:36:51;;;;;;;6.03;3.88;;;;;;;;;;6249536;28;20812;-77
2022/09/11 11:39:51;;;;;;;3.73;3.47;;;;;;;;;;6259637;28;20047;-77
2022/09/11 11:43:17;;;;;;;3.40;1.63;;;;;;;;;;6251691;28;20092;-77
2022/09/11 11:46:37;;;;;;;9.52;4.80;;;;;;;;;;6246524;28;20071;-78
2022/09/11 11:49:37;;;;;;;4.10;3.38;;;;;;;;;;6262612;28;20025;-78
2022/09/11 11:52:45;;;;;;;4.00;3.42;;;;;;;;;;6266324;28;20025;-78
2022/09/11 11:56:08;;;;;;;5.32;4.80;;;;;;;;;;6263655;28;20017;-79
2022/09/11 11:59:30;;;;;;;3.10;2.78;;;;;;;;;;6257335;28;20039;-78
2022/09/11 12:02:33;;;;;;;8.80;4.40;;;;;;;;;;6262445;28;20017;-78
2022/09/11 12:05:35;;;;;;;2.65;2.47;;;;;;;;;;6267889;28;20461;-77
2022/09/11 12:08:42;;;;;;;0.95;0.93;;;;;;;;;;6266343;28;20017;-77
2022/09/11 12:11:45;;;;;;;1.13;1.13;;;;;;;;;;6252572;28;20025;-77
2022/09/11 12:15:04;;;;;;;4.68;4.10;;;;;;;;;;6268361;28;20417;-77
2022/09/11 12:18:10;;;;;;;1.67;1.58;;;;;;;;;;6259926;28;20098;-77
2022/09/11 12:21:30;;;;;;;8.93;1.75;;;;;;;;;;6273315;28;20039;-76
2022/09/11 12:24:53;;;;;;;1.55;1.45;;;;;;;;;;6223781;28;20064;-77
2022/09/11 12:28:13;;;;;;;1.17;1.17;;;;;;;;;;6254444;28;20044;-76
2022/09/11 12:31:14;;;;;;;1.30;1.20;;;;;;;;;;6282017;28;20378;-76
2022/09/11 12:34:18;;;;;;;1.60;1.50;;;;;;;;;;6277839;28;20016;-77
2022/09/11 12:37:34;;;;;;;2.05;1.88;;;;;;;;;;6262892;28;20013;-76
2022/09/11 12:40:47;;;;;;;1.27;1.00;;;;;;;;;;6270547;28;20111;-77
2022/09/11 12:43:48;;;;;;;3.45;3.05;;;;;;;;;;6261410;28;20028;-77
2022/09/11 12:46:48;;;;;;;0.77;0.77;;;;;;;;;;6270139;28;20464;-76
2022/09/11 12:49:54;;;;;;;2.57;2.37;;;;;;;;;;6266271;28;20032;-77
2022/09/11 12:53:00;;;;;;;6.20;2.78;;;;;;;;;;6261117;28;20373;-77
2022/09/11 12:56:06;;;;;;;2.88;1.70;;;;;;;;;;6249882;28;20107;-76
2022/09/11 12:59:08;;;;;;;7.93;3.25;;;;;;;;;;6258655;28;20013;-76
2022/09/11 13:02:17;;;;;;;1.73;1.65;;;;;;;;;;6260836;28;20497;-77
2022/09/11 13:05:21;;;;;;;2.95;2.08;;;;;;;;;;6262420;28;20074;-77
2022/09/11 13:08:22;;;;;;;1.38;1.27;;;;;;;;;;6268335;28;20031;-77
2022/09/11 13:11:40;;;;;;;4.30;1.35;;;;;;;;;;6273592;28;20024;-76
2022/09/11 13:14:45;;;;;;;2.63;2.10;;;;;;;;;;6273376;28;20162;-76
2022/09/11 13:17:46;;;;;;;4.45;3.25;;;;;;;;;;6251998;28;20564;-77
2022/09/11 13:20:55;;;;;;;1.23;1.07;;;;;;;;;;6244955;28;20024;-77
2022/09/11 13:23:59;;;;;;;2.80;1.90;;;;;;;;;;6241410;28;20017;-76
2022/09/11 13:27:07;;;;;;;2.30;2.20;;;;;;;;;;6274556;28;20016;-76
2022/09/11 13:30:10;;;;;;;1.40;0.93;;;;;;;;;;6264309;28;20407;-76
2022/09/11 13:33:15;;;;;;;2.63;1.83;;;;;;;;;;6270904;28;20048;-77
2022/09/11 13:36:19;;;;;;;3.75;2.47;;;;;;;;;;6257847;28;20048;-77
2022/09/11 13:39:20;;;;;;;4.57;2.20;;;;;;;;;;6263864;28;20016;-77
2022/09/11 13:42:24;;;;;;;3.13;2.90;;;;;;;;;;6274008;28;20024;-77
2022/09/11 13:45:27;;;;;;;3.25;1.95;;;;;;;;;;6259600;28;20274;-77
2022/09/11 13:48:27;;;;;;;2.17;1.83;;;;;;;;;;6246867;28;20491;-77
2022/09/11 13:51:28;;;;;;;1.40;1.35;;;;;;;;;;6238732;28;20112;-78
2022/09/11 13:54:29;;;;;;;2.85;2.58;;;;;;;;;;6234875;28;20028;-78
2022/09/11 13:57:30;;;;;;;3.50;3.00;;;;;;;;;;6269287;28;20211;-78
2022/09/11 14:00:35;;;;;;;2.20;2.03;;;;;;;;;;6262856;28;20142;-78
2022/09/11 14:03:35;;;;;;;1.60;0.60;;;;;;;;;;6248126;28;20016;-78
2022/09/11 14:06:35;;;;;;;1.67;1.40;;;;;;;;;;6269292;28;20041;-79
2022/09/11 14:09:36;;;;;;;1.63;1.53;;;;;;;;;;6263833;28;20032;-77
2022/09/11 14:12:46;;;;;;;0.70;0.70;;;;;;;;;;6272735;28;20449;-75
2022/09/11 14:15:50;;;;;;;2.28;2.13;;;;;;;;;;6255946;28;20025;-77
2022/09/11 14:18:58;;;;;;;2.75;2.13;;;;;;;;;;6255449;28;20105;-79
2022/09/11 14:22:00;;;;;;;1.63;1.52;;;;;;;;;;6269822;28;20029;-80
2022/09/11 14:25:04;;;;;;;1.75;1.65;;;;;;;;;;6255622;28;20487;-80
2022/09/11 14:28:04;;;;;;;5.07;2.05;;;;;;;;;;6259602;28;20021;-80
2022/09/11 14:31:06;;;;;;;3.03;2.80;;;;;;;;;;6254594;28;20036;-79
2022/09/11 14:34:15;;;;;;;3.08;2.70;;;;;;;;;;6239528;28;20135;-79
2022/09/11 14:37:15;;;;;;;5.10;4.32;;;;;;;;;;6242544;28;20013;-78
2022/09/11 14:40:18;;;;;;;1.87;1.80;;;;;;;;;;6262840;28;20031;-79
2022/09/11 14:43:23;;;;;;;4.85;3.17;;;;;;;;;;6257331;28;20024;-79
2022/09/11 14:46:23;;;;;;;18.00;3.63;;;;;;;;;;6264568;28;20081;-79
2022/09/11 14:49:23;;;;;;;5.47;3.83;;;;;;;;;;6238669;28;20033;-78
2022/09/11 14:52:28;;;;;;;0.57;0.57;;;;;;;;;;6267092;28;20422;-79
2022/09/11 14:55:29;;;;;;;2.53;1.75;;;;;;;;;;6267409;28;20898;-78
2022/09/11 14:58:30;;;;;;;2.95;2.38;;;;;;;;;;6241208;28;20025;-78
2022/09/11 15:01:30;;;;;;;4.97;4.27;;;;;;;;;;6264547;28;20033;-79
2022/09/11 15:04:30;;;;;;;2.60;2.43;;;;;;;;;;6263443;28;20048;-79
2022/09/11 15:07:32;;;;;;;1.83;1.73;;;;;;;;;;6251536;28;20017;-80
2022/09/11 15:10:33;;;;;;;0.15;0.15;;;;;;;;;;6238885;28;20032;-80
2022/09/11 15:13:34;;;;;;;0.00;0.00;;;;;;;;;;6248500;28;20017;-80
2022/09/11 15:16:34;;;;;;;0.00;0.00;;;;;;;;;;6268632;28;20040;-79
2022/09/11 15:19:34;;;;;;;0.10;0.10;;;;;;;;;;6251577;28;20422;-79
2022/09/11 15:22:37;;;;;;;0.00;0.00;;;;;;;;;;6257916;28;20055;-79
2022/09/11 15:25:37;;;;;;;0.00;0.00;;;;;;;;;;6254045;28;20025;-78
2022/09/11 15:28:37;;;;;;;0.00;0.00;;;;;;;;;;6264269;28;20388;-78
2022/09/11 15:31:38;;;;;;;0.10;0.10;;;;;;;;;;6274044;28;20196;-79
2022/09/11 15:34:39;;;;;;;0.00;0.00;;;;;;;;;;6274815;28;20131;-79
2022/09/11 15:37:40;;;;;;;0.10;0.10;;;;;;;;;;6276519;28;20021;-79
2022/09/11 15:40:41;;;;;;;0.00;0.00;;;;;;;;;;6268588;28;20030;-79
2022/09/11 15:43:43;;;;;;;0.00;0.00;;;;;;;;;;6257391;28;20412;-79
2022/09/11 15:46:44;;;;;;;0.00;0.00;;;;;;;;;;6277561;28;20491;-79
2022/09/11 15:49:46;;;;;;;0.00;0.00;;;;;;;;;;6271476;28;20021;-79
2022/09/11 15:52:47;;;;;;;0.17;0.17;;;;;;;;;;6256558;28;20267;-79
2022/09/11 15:55:47;;;;;;;0.00;0.00;;;;;;;;;;6270561;28;20074;-79
2022/09/11 15:58:48;;;;;;;0.00;0.00;;;;;;;;;;6247176;28;20024;-80
2022/09/11 16:01:48;;;;;;;0.00;0.00;;;;;;;;;;6268397;28;20020;-80
2022/09/11 16:04:48;;;;;;;0.17;0.17;;;;;;;;;;6275156;28;20111;-80
2022/09/11 16:07:49;;;;;;;0.00;0.00;;;;;;;;;;6256544;28;20269;-80
2022/09/11 16:10:50;;;;;;;0.00;0.00;;;;;;;;;;6268249;28;20091;-80
2022/09/11 16:13:51;;;;;;;0.00;0.00;;;;;;;;;;6276137;28;20021;-80
2022/09/11 16:16:52;;;;;;;0.00;0.00;;;;;;;;;;6266521;28;20511;-80
2022/09/11 16:19:53;;;;;;;0.00;0.00;;;;;;;;;;6273163;28;20020;-79
2022/09/11 16:22:54;;;;;;;0.03;0.03;;;;;;;;;;6246964;28;20142;-79
2022/09/11 16:25:54;;;;;;;0.00;0.00;;;;;;;;;;6240249;28;20013;-80
2022/09/11 16:28:54;;;;;;;0.00;0.00;;;;;;;;;;6258739;28;20021;-80
2022/09/11 16:31:55;;;;;;;0.00;0.00;;;;;;;;;;6253552;28;20374;-79
2022/09/11 16:34:56;;;;;;;0.10;0.10;;;;;;;;;;6250507;28;20088;-79
2022/09/11 16:37:56;;;;;;;0.00;0.00;;;;;;;;;;6239461;28;20468;-79
2022/09/11 16:41:02;;;;;;;0.00;0.00;;;;;;;;;;6261282;28;20017;-79
2022/09/11 16:44:03;;;;;;;0.00;0.00;;;;;;;;;;6253390;28;20788;-80
2022/09/11 16:47:05;;;;;;;0.00;0.00;;;;;;;;;;6265253;28;20028;-79
2022/09/11 16:50:06;;;;;;;0.00;0.00;;;;;;;;;;6266432;28;20023;-79
2022/09/11 16:53:07;;;;;;;0.00;0.00;;;;;;;;;;6232331;28;20017;-79
2022/09/11 16:56:08;;;;;;;0.00;0.00;;;;;;;;;;6262068;28;20021;-79
2022/09/11 16:59:09;;;;;;;0.10;0.10;;;;;;;;;;6262917;28;20447;-79
2022/09/11 17:02:09;;;;;;;0.00;0.00;;;;;;;;;;6264576;28;20484;-79
2022/09/11 17:05:09;;;;;;;0.00;0.00;;;;;;;;;;6263332;28;20032;-79
2022/09/11 17:08:10;;;;;;;0.20;0.20;;;;;;;;;;6259533;28;20021;-79
2022/09/11 17:11:14;;;;;;;0.00;0.00;;;;;;;;;;6255094;28;20083;-79
2022/09/11 17:14:16;;;;;;;0.17;0.17;;;;;;;;;;6272211;28;20013;-79
2022/09/11 17:17:16;;;;;;;0.00;0.00;;;;;;;;;;6274163;28;20033;-78
2022/09/11 17:20:16;;;;;;;0.00;0.00;;;;;;;;;;6267528;28;20012;-78
2022/09/11 17:23:18;;;;;;;0.00;0.00;;;;;;;;;;6259276;28;20022;-78
2022/09/11 17:26:18;;;;;;;0.10;0.10;;;;;;;;;;6255954;28;20025;-78
2022/09/11 17:29:19;;;;;;;0.17;0.10;;;;;;;;;;6258200;28;20555;-77
2022/09/11 17:32:19;;;;;;;0.00;0.00;;;;;;;;;;6251160;28;20024;-79
2022/09/11 17:35:20;;;;;;;0.00;0.00;;;;;;;;;;6272844;28;20410;-78
2022/09/11 17:38:21;;;;;;;0.00;0.00;;;;;;;;;;6270951;28;20017;-78
2022/09/11 17:41:21;;;;;;;0.00;0.00;;;;;;;;;;6273784;28;20102;-78
2022/09/11 17:44:23;;;;;;;0.00;0.00;;;;;;;;;;6261629;28;20524;-78
2022/09/11 17:47:24;;;;;;;0.08;0.08;;;;;;;;;;6273771;28;20154;-77
2022/09/11 17:50:25;;;;;;;0.88;0.13;;;;;;;;;;6275238;28;20027;-78
2022/09/11 17:53:25;;;;;;;0.00;0.00;;;;;;;;;;6270735;28;20020;-78
2022/09/11 17:56:29;;;;;;;0.13;0.13;;;;;;;;;;6263404;28;20017;-78
2022/09/11 17:59:29;;;;;;;0.20;0.20;;;;;;;;;;6244263;28;20373;-78
2022/09/11 18:02:31;;;;;;;0.00;0.00;;;;;;;;;;6270115;28;20024;-78
2022/09/11 18:05:34;;;;;;;0.08;0.08;;;;;;;;;;6247473;28;20155;-78
2022/09/11 18:08:34;;;;;;;0.10;0.10;;;;;;;;;;6256269;28;20028;-77
2022/09/11 18:11:36;;;;;;;0.00;0.00;;;;;;;;;;6282292;28;20029;-77
2022/09/11 18:14:36;;;;;;;0.00;0.00;;;;;;;;;;6256700;28;20380;-78
2022/09/11 18:17:38;;;;;;;0.07;0.07;;;;;;;;;;6271405;28;20032;-78